createdAt,value
2023-04-25T00:01:37.885Z,44.70
2023-04-25T00:04:04.555Z,44.70
2023-04-25T00:06:31.198Z,44.50
2023-04-25T00:08:57.694Z,44.40
2023-04-25T00:11:24.196Z,44.30
2023-04-25T00:13:50.984Z,44.10
2023-04-25T00:16:17.642Z,44.50
2023-04-25T00:18:44.128Z,43.70
2023-04-25T00:21:10.629Z,43.60
2023-04-25T00:23:37.181Z,43.60
2023-04-25T00:26:03.645Z,43.80
2023-04-25T00:28:30.116Z,44.20
2023-04-25T00:30:56.620Z,44.00
2023-04-25T00:33:23.088Z,43.70
2023-04-25T00:35:49.553Z,44.10
2023-04-25T00:38:16.067Z,43.70
2023-04-25T00:40:42.531Z,43.80
2023-04-25T00:43:08.993Z,43.50
2023-04-25T00:45:35.501Z,43.40
2023-04-25T00:48:02.044Z,44.00
2023-04-25T00:50:28.580Z,43.90
2023-04-25T00:52:55.040Z,44.00
2023-04-25T00:55:21.539Z,43.60
2023-04-25T00:57:48.030Z,43.60
2023-04-25T01:00:14.521Z,43.20
2023-04-25T01:02:41.092Z,43.90
2023-04-25T01:05:07.652Z,43.30
2023-04-25T01:07:34.162Z,43.20
2023-04-25T01:10:00.651Z,43.90
2023-04-25T01:12:27.165Z,43.90
2023-04-25T01:14:53.650Z,43.60
2023-04-25T01:17:20.159Z,43.50
2023-04-25T01:19:46.725Z,43.50
2023-04-25T01:22:13.245Z,43.50
2023-04-25T01:24:39.705Z,43.90
2023-04-25T01:27:06.235Z,43.50
2023-04-25T01:29:32.740Z,44.00
2023-04-25T01:31:59.251Z,43.30
2023-04-25T01:34:25.779Z,43.90
2023-04-25T01:36:52.268Z,43.70
2023-04-25T01:39:18.728Z,43.60
2023-04-25T01:41:45.217Z,43.50
2023-04-25T01:44:11.701Z,43.80
2023-04-25T01:46:38.236Z,43.50
2023-04-25T01:49:04.766Z,43.80
2023-04-25T01:51:31.270Z,43.40
2023-04-25T01:53:59.290Z,43.90
2023-04-25T01:56:26.948Z,43.90
2023-04-25T01:58:53.424Z,43.90
2023-04-25T02:03:47.269Z,43.40
2023-04-25T02:06:13.858Z,43.40
2023-04-25T02:08:40.345Z,43.80
2023-04-25T02:11:06.818Z,43.20
2023-04-25T02:13:33.338Z,43.90
2023-04-25T02:15:59.884Z,43.10
2023-04-25T02:18:26.446Z,43.80
2023-04-25T02:20:52.935Z,43.60
2023-04-25T02:23:19.416Z,43.10
2023-04-25T02:25:45.911Z,43.80
2023-04-25T02:28:12.409Z,43.50
2023-04-25T02:30:38.914Z,43.20
2023-04-25T02:33:05.401Z,43.50
2023-04-25T02:35:31.941Z,43.30
2023-04-25T02:37:58.431Z,43.70
2023-04-25T02:40:24.927Z,43.70
2023-04-25T02:45:18.462Z,43.30
2023-04-25T02:47:44.935Z,43.80
2023-04-25T02:50:11.423Z,43.60
2023-04-25T02:52:37.912Z,43.90
2023-04-25T02:55:04.376Z,43.30
2023-04-25T02:57:30.876Z,43.30
2023-04-25T02:59:57.325Z,43.20
2023-04-25T03:02:23.801Z,43.40
2023-04-25T03:04:50.479Z,43.30
2023-04-25T03:07:16.984Z,43.10
2023-04-25T03:09:43.462Z,43.50
2023-04-25T03:12:09.912Z,43.20
2023-04-25T03:14:36.358Z,43.70
2023-04-25T03:17:02.988Z,43.10
2023-04-25T03:19:29.467Z,43.10
2023-04-25T03:21:55.958Z,43.10
2023-04-25T03:24:22.406Z,43.30
2023-04-25T03:26:48.854Z,43.20
2023-04-25T03:29:15.307Z,43.60
2023-04-25T03:31:41.828Z,43.10
2023-04-25T03:34:08.387Z,43.50
2023-04-25T03:36:34.855Z,43.20
2023-04-25T03:39:01.333Z,43.20
2023-04-25T03:41:27.798Z,42.90
2023-04-25T03:43:54.316Z,43.00
2023-04-25T03:46:22.879Z,43.40
2023-04-25T03:48:49.448Z,43.60
2023-04-25T03:51:15.982Z,42.90
2023-04-25T03:53:42.491Z,43.60
2023-04-25T03:56:09.003Z,43.10
2023-04-25T03:58:35.521Z,43.90
2023-04-25T04:01:02.022Z,43.60
2023-04-25T04:03:28.773Z,43.60
2023-04-25T04:05:55.435Z,43.00
2023-04-25T04:08:22.005Z,43.20
2023-04-25T04:10:48.507Z,43.60
2023-04-25T04:13:15.015Z,43.20
2023-04-25T04:15:41.511Z,43.20
2023-04-25T04:18:08.037Z,43.30
2023-04-25T04:20:34.539Z,43.40
2023-04-25T04:23:01.074Z,42.90
2023-04-25T04:25:27.558Z,43.10
2023-04-25T04:27:54.062Z,43.40
2023-04-25T04:30:20.533Z,43.40
2023-04-25T04:32:49.446Z,43.30
2023-04-25T04:35:17.075Z,43.10
2023-04-25T04:37:43.560Z,43.70
2023-04-25T04:40:10.068Z,43.30
2023-04-25T04:42:36.541Z,43.10
2023-04-25T04:45:03.003Z,43.30
2023-04-25T04:47:29.542Z,43.20
2023-04-25T04:49:56.054Z,43.70
2023-04-25T04:52:22.545Z,43.20
2023-04-25T04:54:49.005Z,43.80
2023-04-25T04:57:15.534Z,43.20
2023-04-25T04:59:42.000Z,43.40
2023-04-25T05:02:08.464Z,43.20
2023-04-25T05:04:35.115Z,43.20
2023-04-25T05:07:01.676Z,43.80
2023-04-25T05:09:28.326Z,44.30
2023-04-25T05:11:54.852Z,43.90
2023-04-25T05:14:21.318Z,43.50
2023-04-25T05:16:47.825Z,43.90
2023-04-25T05:19:14.371Z,43.30
2023-04-25T05:21:40.818Z,44.00
2023-04-25T05:24:07.268Z,43.50
2023-04-25T05:26:33.756Z,43.50
2023-04-25T05:29:00.222Z,43.50
2023-04-25T05:31:26.801Z,43.60
2023-04-25T05:33:53.479Z,44.00
2023-04-25T05:36:19.928Z,44.00
2023-04-25T05:38:46.442Z,43.90
2023-04-25T05:41:12.965Z,43.60
2023-04-25T05:43:39.479Z,43.40
2023-04-25T05:46:05.941Z,43.30
2023-04-25T05:48:32.460Z,43.60
2023-04-25T05:50:58.952Z,43.90
2023-04-25T05:53:25.476Z,43.90
2023-04-25T05:55:51.993Z,44.00
2023-04-25T05:58:18.430Z,44.10
2023-04-25T06:00:45.049Z,44.10
2023-04-25T06:03:11.733Z,44.10
2023-04-25T06:05:38.391Z,43.70
2023-04-25T06:08:04.922Z,43.80
2023-04-25T06:10:31.480Z,43.80
2023-04-25T06:12:57.955Z,44.10
2023-04-25T06:15:28.570Z,44.10
2023-04-25T06:17:55.640Z,43.60
2023-04-25T06:20:22.149Z,44.00
2023-04-25T06:22:48.621Z,44.10
2023-04-25T06:25:15.103Z,44.00
2023-04-25T06:27:41.594Z,43.50
2023-04-25T06:30:08.080Z,44.00
2023-04-25T06:32:34.610Z,43.50
2023-04-25T06:35:01.134Z,44.00
2023-04-25T06:37:27.606Z,43.50
2023-04-25T06:39:54.038Z,44.10
2023-04-25T06:42:20.537Z,44.00
2023-04-25T06:44:46.994Z,43.40
2023-04-25T06:47:13.478Z,44.00
2023-04-25T06:49:39.960Z,44.10
2023-04-25T06:52:06.460Z,43.40
2023-04-25T06:54:32.969Z,43.90
2023-04-25T06:56:59.414Z,43.40
2023-04-25T06:59:25.939Z,44.00
2023-04-25T07:01:52.386Z,43.60
2023-04-25T07:04:19.001Z,43.30
2023-04-25T07:06:45.564Z,43.50
2023-04-25T07:09:12.017Z,43.60
2023-04-25T07:11:38.559Z,43.50
2023-04-25T07:14:05.045Z,43.60
2023-04-25T07:16:31.562Z,43.50
2023-04-25T07:18:58.054Z,44.00
2023-04-25T07:21:24.573Z,44.00
2023-04-25T07:23:51.019Z,43.50
2023-04-25T07:26:17.502Z,43.50
2023-04-25T07:28:44.032Z,44.00
2023-04-25T07:31:10.521Z,43.50
2023-04-25T07:33:37.012Z,44.00
2023-04-25T07:36:03.486Z,43.40
2023-04-25T07:38:29.971Z,43.50
2023-04-25T07:40:56.476Z,43.30
2023-04-25T07:43:23.011Z,43.90
2023-04-25T07:45:49.565Z,43.50
2023-04-25T07:48:16.129Z,43.50
2023-04-25T07:50:42.650Z,43.20
2023-04-25T07:53:09.143Z,43.90
2023-04-25T07:55:35.618Z,43.60
2023-04-25T07:58:02.128Z,43.90
2023-04-25T08:00:28.698Z,43.90
2023-04-25T08:02:55.341Z,43.90
2023-04-25T08:05:22.883Z,43.50
2023-04-25T08:07:49.694Z,43.70
2023-04-25T08:10:16.230Z,43.90
2023-04-25T08:12:42.719Z,43.90
2023-04-25T08:15:09.197Z,43.90
2023-04-25T08:17:35.700Z,43.90
2023-04-25T08:20:02.226Z,43.90
2023-04-25T08:22:28.764Z,43.90
2023-04-25T08:24:55.249Z,43.20
2023-04-25T08:27:21.749Z,43.80
2023-04-25T08:29:48.236Z,43.30
2023-04-25T08:32:14.736Z,43.80
2023-04-25T08:34:41.233Z,43.50
2023-04-25T08:37:07.722Z,43.30
2023-04-25T08:39:34.195Z,43.90
2023-04-25T08:42:00.908Z,43.50
2023-04-25T08:44:27.436Z,43.70
2023-04-25T08:46:53.997Z,43.90
2023-04-25T08:49:20.556Z,43.80
2023-04-25T08:51:47.044Z,43.70
2023-04-25T08:54:30.750Z,43.80
2023-04-25T08:57:00.005Z,43.50
2023-04-25T08:59:26.499Z,43.80
2023-04-25T09:01:53.006Z,43.80
2023-04-25T09:04:19.540Z,43.40
2023-04-25T09:06:46.077Z,43.90
2023-04-25T09:09:12.517Z,43.90
2023-04-25T09:11:39.006Z,43.30
2023-04-25T09:14:05.478Z,43.90
2023-04-25T09:16:33.215Z,43.40
2023-04-25T09:19:00.231Z,43.40
2023-04-25T09:21:26.702Z,43.90
2023-04-25T09:23:53.607Z,43.30
2023-04-25T09:26:20.280Z,43.80
2023-04-25T09:28:46.769Z,43.70
2023-04-25T09:31:13.308Z,43.00
2023-04-25T09:33:39.858Z,43.80
2023-04-25T09:36:06.401Z,43.30
2023-04-25T09:38:32.997Z,43.10
2023-04-25T09:40:59.518Z,43.80
2023-04-25T09:43:26.044Z,43.70
2023-04-25T09:45:52.570Z,43.00
2023-04-25T09:48:19.142Z,43.40
2023-04-25T09:50:45.771Z,44.00
2023-04-25T09:53:12.326Z,43.70
2023-04-25T09:55:38.774Z,43.10
2023-04-25T09:58:05.223Z,43.10
2023-04-25T10:00:31.717Z,43.70
2023-04-25T10:02:58.259Z,43.20
2023-04-25T10:05:24.797Z,43.80
2023-04-25T10:07:51.307Z,43.40
2023-04-25T10:10:17.829Z,43.80
2023-04-25T10:12:44.320Z,43.80
2023-04-25T10:15:10.800Z,43.80
2023-04-25T10:17:37.371Z,43.30
2023-04-25T10:20:03.900Z,43.50
2023-04-25T10:22:30.413Z,44.00
2023-04-25T10:24:56.919Z,43.60
2023-04-25T10:27:23.504Z,43.50
2023-04-25T10:29:50.338Z,43.90
2023-04-25T10:32:16.827Z,43.90
2023-04-25T10:34:43.279Z,43.50
2023-04-25T10:37:09.771Z,43.50
2023-04-25T10:39:36.287Z,43.50
2023-04-25T10:42:02.748Z,43.50
2023-04-25T10:44:29.206Z,43.50
2023-04-25T10:46:55.738Z,44.10
2023-04-25T10:49:22.285Z,43.50
2023-04-25T10:51:55.287Z,44.10
2023-04-25T10:54:22.082Z,44.00
2023-04-25T10:56:48.543Z,43.50
2023-04-25T10:59:15.023Z,44.00
2023-04-25T11:01:41.517Z,43.40
2023-04-25T11:04:08.357Z,43.30
2023-04-25T11:06:35.015Z,43.30
2023-04-25T11:09:01.530Z,43.70
2023-04-25T11:13:55.051Z,43.80
2023-04-25T11:16:27.248Z,43.70
2023-04-25T11:18:54.448Z,43.40
2023-04-25T11:21:20.967Z,43.90
2023-04-25T11:23:47.468Z,43.90
2023-04-25T11:26:13.996Z,43.40
2023-04-25T11:28:40.494Z,45.40
2023-04-25T11:31:07.024Z,43.40
2023-04-25T11:33:33.495Z,43.90
2023-04-25T11:35:59.971Z,43.40
2023-04-25T11:38:27.346Z,43.90
2023-04-25T11:40:55.276Z,43.90
2023-04-25T11:43:21.830Z,43.20
2023-04-25T11:45:48.446Z,43.60
2023-04-25T11:48:15.277Z,43.90
2023-04-25T11:50:42.241Z,43.40
2023-04-25T11:53:08.773Z,43.90
2023-04-25T11:55:35.266Z,43.30
2023-04-25T11:58:01.782Z,43.40
2023-04-25T12:00:28.244Z,43.00
2023-04-25T12:02:54.955Z,43.30
2023-04-25T12:05:32.176Z,43.90
2023-04-25T12:08:00.086Z,43.40
2023-04-25T12:10:26.571Z,43.90
2023-04-25T12:12:53.043Z,43.90
2023-04-25T12:15:19.575Z,43.90
2023-04-25T12:17:46.040Z,43.40
2023-04-25T12:20:12.511Z,43.90
2023-04-25T12:22:39.017Z,43.80
2023-04-25T12:25:05.470Z,43.90
2023-04-25T12:27:31.937Z,43.30
2023-04-25T12:29:58.425Z,43.50
2023-04-25T12:32:24.930Z,43.80
2023-04-25T12:34:51.446Z,43.70
2023-04-25T12:37:17.992Z,43.80
2023-04-25T12:39:44.500Z,44.20
2023-04-25T12:42:11.038Z,44.30
2023-04-25T12:44:37.593Z,44.20
2023-04-25T12:47:04.331Z,44.00
2023-04-25T12:49:30.998Z,44.00
2023-04-25T12:51:57.501Z,44.10
2023-04-25T12:54:23.942Z,44.10
2023-04-25T12:56:50.404Z,44.20
2023-04-25T13:01:44.008Z,44.50
2023-04-25T13:04:10.618Z,44.90
2023-04-25T13:06:37.200Z,44.50
2023-04-25T13:09:03.651Z,44.90
2023-04-25T13:13:57.486Z,44.40
2023-04-25T13:16:23.973Z,44.60
2023-04-25T13:18:50.527Z,44.50
2023-04-25T13:21:17.117Z,44.40
2023-04-25T13:23:43.561Z,44.30
2023-04-25T13:28:37.084Z,44.30
2023-04-25T13:31:03.616Z,45.00
2023-04-25T13:33:30.102Z,44.50
2023-04-25T13:35:56.588Z,44.40
2023-04-25T13:38:23.069Z,44.50
2023-04-25T13:40:49.520Z,44.60
2023-04-25T13:43:15.996Z,44.80
2023-04-25T13:45:42.489Z,44.50
2023-04-25T13:48:09.094Z,44.30
2023-04-25T13:50:35.707Z,44.50
2023-04-25T13:53:02.160Z,44.80
2023-04-25T13:55:28.602Z,44.50
2023-04-25T13:57:55.107Z,45.00
2023-04-25T14:00:21.595Z,44.40
2023-04-25T14:02:50.616Z,44.50
2023-04-25T14:05:17.402Z,45.00
2023-04-25T14:07:43.864Z,44.70
2023-04-25T14:10:10.500Z,45.10
2023-04-25T14:12:37.014Z,44.90
2023-04-25T14:15:03.510Z,44.70
2023-04-25T14:17:30.014Z,44.70
2023-04-25T14:19:56.557Z,44.50
2023-04-25T14:22:23.047Z,45.00
2023-04-25T14:24:49.536Z,44.60
2023-04-25T14:27:16.023Z,44.70
2023-04-25T14:29:42.536Z,44.80
2023-04-25T14:32:08.993Z,45.10
2023-04-25T14:34:35.487Z,44.60
2023-04-25T14:37:01.994Z,45.10
2023-04-25T14:39:28.438Z,44.90
2023-04-25T14:41:54.930Z,44.90
2023-04-25T14:44:21.414Z,44.90
2023-04-25T14:46:47.891Z,44.50
2023-04-25T14:49:14.420Z,44.60
2023-04-25T14:51:40.907Z,45.00
2023-04-25T14:54:07.420Z,44.80
2023-04-25T14:56:33.882Z,44.90
2023-04-25T14:59:00.401Z,45.00
2023-04-25T15:01:27.010Z,44.50
2023-04-25T15:03:54.017Z,44.90
2023-04-25T15:06:20.726Z,44.30
2023-04-25T15:08:47.218Z,44.40
2023-04-25T15:11:13.701Z,44.40
2023-04-25T15:13:40.186Z,44.40
2023-04-25T15:16:06.717Z,44.70
2023-04-25T15:18:33.228Z,44.70
2023-04-25T15:20:59.752Z,44.20
2023-04-25T15:23:28.396Z,44.90
2023-04-25T15:25:56.170Z,45.10
2023-04-25T15:28:22.653Z,45.10
2023-04-25T15:30:49.139Z,45.50
2023-04-25T15:33:15.760Z,45.40
2023-04-25T15:35:42.267Z,46.60
2023-04-25T15:38:08.704Z,45.90
2023-04-25T15:40:35.190Z,46.00
2023-04-25T15:43:01.667Z,45.80
2023-04-25T15:45:28.138Z,45.70
2023-04-25T15:47:54.619Z,45.70
2023-04-25T15:50:21.126Z,46.30
2023-04-25T15:52:47.611Z,46.00
2023-04-25T15:55:14.130Z,46.80
2023-04-25T15:57:40.594Z,45.40
2023-04-25T16:00:07.120Z,46.00
2023-04-25T16:02:33.725Z,45.30
2023-04-25T16:05:00.518Z,45.40
2023-04-25T16:07:27.097Z,45.40
2023-04-25T16:09:53.589Z,45.90
2023-04-25T16:12:20.096Z,45.60
2023-04-25T16:14:46.577Z,45.70
2023-04-25T16:17:13.030Z,45.50
2023-04-25T16:19:39.479Z,45.50
2023-04-25T16:22:05.937Z,46.30
2023-04-25T16:24:32.383Z,45.80
2023-04-25T16:26:58.852Z,45.90
2023-04-25T16:29:25.286Z,46.10
2023-04-25T16:31:51.797Z,46.60
2023-04-25T16:34:18.276Z,46.50
2023-04-25T16:36:44.723Z,46.40
2023-04-25T16:39:11.220Z,45.90
2023-04-25T16:41:37.681Z,46.40
2023-04-25T16:44:04.156Z,46.10
2023-04-25T16:46:30.647Z,46.00
2023-04-25T16:48:57.159Z,46.50
2023-04-25T16:51:23.601Z,46.50
2023-04-25T16:53:50.104Z,46.60
2023-04-25T16:56:16.582Z,45.70
2023-04-25T16:58:43.081Z,46.20
2023-04-25T17:01:09.623Z,46.20
2023-04-25T17:03:36.249Z,45.50
2023-04-25T17:06:02.883Z,45.60
2023-04-25T17:08:29.399Z,46.00
2023-04-25T17:10:55.935Z,45.60
2023-04-25T17:13:22.421Z,46.00
2023-04-25T17:15:57.547Z,45.50
2023-04-25T17:18:24.595Z,45.50
2023-04-25T17:20:51.282Z,45.30
2023-04-25T17:23:17.764Z,45.30
2023-04-25T17:25:44.237Z,45.40
2023-04-25T17:28:10.749Z,45.30
2023-04-25T17:30:37.269Z,46.00
2023-04-25T17:33:03.855Z,45.80
2023-04-25T17:35:30.419Z,45.80
2023-04-25T17:37:56.875Z,45.80
2023-04-25T17:40:23.379Z,45.60
2023-04-25T17:42:49.848Z,45.60
2023-04-25T17:45:16.334Z,46.10
2023-04-25T17:47:42.862Z,45.50
2023-04-25T17:50:09.444Z,45.60
2023-04-25T17:52:35.900Z,45.40
2023-04-25T17:55:02.404Z,45.60
2023-04-25T17:57:28.918Z,45.40
2023-04-25T17:59:55.448Z,45.70
2023-04-25T18:02:22.195Z,45.90
2023-04-25T18:04:48.913Z,46.60
2023-04-25T18:07:15.378Z,45.20
2023-04-25T18:09:41.848Z,45.40
2023-04-25T18:12:08.349Z,45.90
2023-04-25T18:14:34.814Z,45.80
2023-04-25T18:17:01.316Z,45.10
2023-04-25T18:19:27.768Z,45.70
2023-04-25T18:21:54.369Z,45.00
2023-04-25T18:24:20.944Z,45.20
2023-04-25T18:26:47.404Z,45.60
2023-04-25T18:29:28.975Z,45.00
2023-04-25T18:31:55.858Z,45.10
2023-04-25T18:34:22.366Z,45.60
2023-04-25T18:36:48.814Z,45.20
2023-04-25T18:39:22.446Z,45.00
2023-04-25T18:41:57.172Z,45.60
2023-04-25T18:44:26.474Z,45.00
2023-04-25T18:46:52.977Z,45.20
2023-04-25T18:49:19.447Z,45.40
2023-04-25T18:51:45.900Z,45.60
2023-04-25T18:54:12.400Z,45.60
2023-04-25T18:56:38.868Z,44.80
2023-04-25T18:59:05.367Z,45.10
2023-04-25T19:01:31.902Z,45.40
2023-04-25T19:03:58.750Z,45.30
2023-04-25T19:06:25.632Z,44.70
2023-04-25T19:08:52.424Z,45.30
2023-04-25T19:11:21.113Z,46.80
2023-04-25T19:13:47.909Z,44.60
2023-04-25T19:16:14.455Z,44.50
2023-04-25T19:18:40.953Z,45.20
2023-04-25T19:21:07.441Z,45.20
2023-04-25T19:23:33.919Z,45.20
2023-04-25T19:26:00.450Z,44.70
2023-04-25T19:28:26.973Z,45.20
2023-04-25T19:30:53.522Z,45.20
2023-04-25T19:33:20.031Z,45.20
2023-04-25T19:35:46.491Z,45.20
2023-04-25T19:38:13.000Z,45.20
2023-04-25T19:40:39.461Z,44.70
2023-04-25T19:43:05.974Z,45.20
2023-04-25T19:45:32.528Z,44.80
2023-04-25T19:47:59.373Z,44.60
2023-04-25T19:50:25.844Z,44.50
2023-04-25T19:52:52.317Z,45.10
2023-04-25T19:55:18.793Z,45.10
2023-04-25T19:57:45.300Z,44.60
2023-04-25T20:00:11.781Z,45.10
2023-04-25T20:02:38.352Z,45.10
2023-04-25T20:05:05.166Z,45.10
2023-04-25T20:07:31.811Z,44.10
2023-04-25T20:09:58.265Z,44.90
2023-04-25T20:12:24.765Z,44.80
2023-04-25T20:14:51.288Z,44.30
2023-04-25T20:17:17.724Z,44.10
2023-04-25T20:19:44.154Z,44.00
2023-04-25T20:24:37.657Z,44.50
2023-04-25T20:27:04.111Z,44.00
2023-04-25T20:29:30.551Z,44.70
2023-04-25T20:31:57.103Z,44.90
2023-04-25T20:34:23.702Z,44.10
2023-04-25T20:36:50.245Z,44.40
2023-04-25T20:39:16.687Z,44.30
2023-04-25T20:41:43.191Z,44.40
2023-04-25T20:44:09.674Z,44.80
2023-04-25T20:46:36.166Z,44.60
2023-04-25T20:49:02.637Z,44.70
2023-04-25T20:51:29.082Z,44.80
2023-04-25T20:53:55.576Z,44.70
2023-04-25T20:56:22.041Z,44.20
2023-04-25T20:58:48.552Z,44.60
2023-04-25T21:01:15.048Z,44.70
2023-04-25T21:03:41.739Z,44.60
2023-04-25T21:06:08.293Z,44.00
2023-04-25T21:08:34.758Z,44.60
2023-04-25T21:11:01.204Z,44.60
2023-04-25T21:13:27.651Z,44.60
2023-04-25T21:15:54.087Z,44.00
2023-04-25T21:18:20.744Z,44.10
2023-04-25T21:20:47.220Z,44.10
2023-04-25T21:23:13.713Z,44.20
2023-04-25T21:25:40.210Z,44.10
2023-04-25T21:28:06.694Z,44.60
2023-04-25T21:30:33.181Z,44.40
2023-04-25T21:32:59.705Z,43.70
2023-04-25T21:35:26.199Z,44.40
2023-04-25T21:37:52.686Z,44.00
2023-04-25T21:40:19.143Z,44.20
2023-04-25T21:42:45.640Z,44.40
2023-04-25T21:47:39.286Z,43.90
2023-04-25T21:50:05.795Z,43.90
2023-04-25T21:52:32.328Z,44.40
2023-04-25T21:54:58.829Z,44.40
2023-04-25T21:57:25.313Z,44.40
2023-04-25T21:59:51.838Z,44.40
2023-04-25T22:02:18.301Z,44.10
2023-04-25T22:04:44.914Z,44.00
2023-04-25T22:07:11.394Z,44.70
2023-04-25T22:09:47.406Z,44.40
2023-04-25T22:12:20.540Z,43.50
2023-04-25T22:14:46.948Z,43.80
2023-04-25T22:17:13.396Z,43.90
2023-04-25T22:19:39.796Z,44.30
2023-04-25T22:22:06.290Z,44.00
2023-04-25T22:24:32.708Z,44.40
2023-04-25T22:26:59.170Z,44.30
2023-04-25T22:29:25.631Z,43.80
2023-04-25T22:31:52.160Z,43.90
2023-04-25T22:34:18.654Z,44.30
2023-04-25T22:36:45.120Z,43.90
2023-04-25T22:39:11.531Z,43.80
2023-04-25T22:41:37.948Z,44.30
2023-04-25T22:44:04.422Z,43.80
2023-04-25T22:46:30.877Z,44.30
2023-04-25T22:48:57.334Z,44.30
2023-04-25T22:51:23.802Z,44.30
2023-04-25T22:53:50.287Z,44.20
2023-04-25T22:56:16.727Z,43.90
2023-04-25T22:58:43.195Z,43.70
2023-04-25T23:01:09.743Z,43.70
2023-04-25T23:03:36.415Z,44.10
2023-04-25T23:06:03.061Z,43.70
2023-04-25T23:08:29.507Z,43.80
2023-04-25T23:10:55.988Z,44.00
2023-04-25T23:13:22.394Z,43.70
2023-04-25T23:15:48.846Z,43.60
2023-04-25T23:18:15.384Z,43.70
2023-04-25T23:20:41.821Z,44.20
2023-04-25T23:23:08.230Z,44.10
2023-04-25T23:25:34.708Z,44.10
2023-04-25T23:28:01.171Z,44.70
2023-04-25T23:30:27.634Z,43.60
2023-04-25T23:32:54.099Z,43.70
2023-04-25T23:35:20.581Z,43.60
2023-04-25T23:37:47.016Z,43.50
2023-04-25T23:40:13.427Z,43.90
2023-04-25T23:42:39.936Z,43.40
2023-04-25T23:45:06.402Z,43.60
2023-04-25T23:47:32.890Z,43.60
2023-04-25T23:49:59.387Z,43.60
2023-04-25T23:52:25.861Z,43.50
2023-04-25T23:54:52.350Z,43.70
2023-04-25T23:57:18.817Z,43.40
2023-04-25T23:59:45.258Z,43.40
